createdAt,value
2022-10-17T03:25:33.562Z,30.54
2022-10-17T03:28:01.688Z,30.34
2022-10-17T03:30:32.110Z,29.85
2022-10-17T03:33:01.072Z,30.66
2022-10-17T03:35:28.980Z,29.72
2022-10-17T03:37:58.986Z,29.85
2022-10-17T03:40:29.010Z,30.26
2022-10-17T03:42:56.927Z,30.38
2022-10-17T03:45:24.792Z,30.36
2022-10-17T03:47:53.994Z,29.97
2022-10-17T03:50:21.852Z,30.03
2022-10-17T03:52:50.410Z,29.58
2022-10-17T03:55:19.859Z,29.49
2022-10-17T03:57:48.464Z,30.41
2022-10-17T04:00:19.183Z,29.73
2022-10-17T04:02:54.601Z,30.12
2022-10-17T04:05:22.499Z,29.71
2022-10-17T04:07:50.352Z,29.85
2022-10-17T04:10:24.777Z,29.85
2022-10-17T04:12:52.713Z,29.29
2022-10-17T04:15:20.584Z,29.53
2022-10-17T04:17:49.066Z,29.59
2022-10-17T04:20:17.931Z,29.84
2022-10-17T04:22:46.831Z,30.00
2022-10-17T04:25:15.234Z,29.30
2022-10-17T04:27:48.749Z,29.08
2022-10-17T04:30:17.060Z,29.11
2022-10-17T04:32:45.799Z,29.11
2022-10-17T04:35:23.205Z,29.66
2022-10-17T04:37:58.272Z,29.27
2022-10-17T04:40:26.201Z,30.09
2022-10-17T04:42:56.140Z,29.30
2022-10-17T04:45:32.047Z,29.71
2022-10-17T04:48:03.619Z,29.62
2022-10-17T04:50:31.523Z,29.88
2022-10-17T04:53:38.985Z,28.78
2022-10-17T04:56:10.433Z,29.89
2022-10-17T04:58:41.073Z,29.74
2022-10-17T05:01:11.867Z,30.04
2022-10-17T05:03:42.186Z,29.99
2022-10-17T05:06:12.550Z,30.22
2022-10-17T05:08:41.363Z,30.00
2022-10-17T05:11:17.317Z,29.86
2022-10-17T05:13:51.127Z,29.04
2022-10-17T05:16:19.962Z,30.04
2022-10-17T05:18:52.721Z,29.65
2022-10-17T05:21:23.012Z,30.29
2022-10-17T05:23:51.570Z,29.54
2022-10-17T05:26:19.946Z,30.81
2022-10-17T05:28:49.792Z,30.29
2022-10-17T05:31:20.121Z,30.90
2022-10-17T05:33:48.120Z,32.17
2022-10-17T05:36:16.152Z,30.22
2022-10-17T05:38:44.333Z,30.04
2022-10-17T05:41:12.741Z,30.75
2022-10-17T05:43:40.607Z,31.40
2022-10-17T05:46:10.767Z,30.32
2022-10-17T05:48:39.531Z,30.68
2022-10-17T05:51:09.903Z,30.84
2022-10-17T05:53:39.778Z,30.83
2022-10-17T05:56:13.007Z,30.86
2022-10-17T05:58:51.542Z,31.54
2022-10-17T06:01:32.771Z,30.10
2022-10-17T06:04:01.126Z,30.19
2022-10-17T06:06:29.010Z,30.80
2022-10-17T06:08:57.160Z,29.78
2022-10-17T06:11:30.253Z,30.30
2022-10-17T06:13:58.350Z,30.09
2022-10-17T06:16:27.347Z,29.75
2022-10-17T06:18:56.802Z,29.51
2022-10-17T06:21:27.132Z,29.93
2022-10-17T06:24:06.352Z,29.54
2022-10-17T06:26:37.278Z,30.14
2022-10-17T06:29:07.624Z,29.91
2022-10-17T06:31:40.581Z,29.86
2022-10-17T06:34:10.433Z,29.54
2022-10-17T06:36:40.178Z,29.88
2022-10-17T06:39:09.435Z,29.99
2022-10-17T06:41:42.636Z,30.07
2022-10-17T06:44:10.800Z,30.03
2022-10-17T06:46:53.805Z,29.99
2022-10-17T06:49:25.837Z,30.06
2022-10-17T06:52:10.428Z,29.75
2022-10-17T06:54:50.851Z,29.89
2022-10-17T06:57:32.618Z,29.25
2022-10-17T07:00:22.371Z,28.82
2022-10-17T07:02:55.152Z,29.46
2022-10-17T07:05:26.137Z,29.42
2022-10-17T07:07:53.481Z,29.23
2022-10-17T07:10:21.560Z,29.50
2022-10-17T07:12:49.692Z,29.37
2022-10-17T07:15:19.301Z,28.78
2022-10-17T07:17:49.205Z,28.69
2022-10-17T07:20:19.070Z,28.78
2022-10-17T07:22:52.978Z,29.20
2022-10-17T07:25:22.389Z,29.36
2022-10-17T07:27:57.767Z,28.74
2022-10-17T07:30:25.913Z,29.39
2022-10-17T07:32:59.822Z,28.10
2022-10-17T07:35:27.897Z,28.67
2022-10-17T07:37:57.499Z,28.37
2022-10-17T07:40:25.476Z,28.47
2022-10-17T07:42:53.656Z,29.48
2022-10-17T07:45:21.759Z,29.18
2022-10-17T07:47:49.900Z,29.98
2022-10-17T07:50:17.960Z,30.14
2022-10-17T07:52:45.795Z,30.07
2022-10-17T07:55:15.638Z,30.19
2022-10-17T07:57:42.994Z,30.10
2022-10-17T08:00:11.875Z,29.43
2022-10-17T08:02:42.646Z,32.14
2022-10-17T08:05:10.635Z,31.05
2022-10-17T08:07:38.894Z,29.69
2022-10-17T08:12:42.413Z,29.86
2022-10-17T08:15:12.340Z,28.88
2022-10-17T08:17:43.504Z,31.44
2022-10-17T08:20:12.615Z,30.53
2022-10-17T08:22:40.484Z,30.50
2022-10-17T08:25:09.542Z,31.46
2022-10-17T08:27:37.454Z,31.22
2022-10-17T08:30:25.448Z,31.60
2022-10-17T08:33:42.672Z,32.54
2022-10-17T08:36:13.426Z,31.15
2022-10-17T08:38:43.622Z,29.83
2022-10-17T08:41:22.282Z,29.69
2022-10-17T08:44:22.713Z,28.46
2022-10-17T08:47:13.785Z,31.21
2022-10-17T09:02:01.267Z,31.26
2022-10-17T09:04:49.562Z,30.10
2022-10-17T09:07:30.033Z,31.45
2022-10-17T09:10:07.549Z,30.11
2022-10-17T09:12:49.282Z,30.30
2022-10-17T09:15:40.964Z,30.05
2022-10-17T09:18:27.544Z,30.46
2022-10-17T09:21:18.136Z,29.85
2022-10-17T09:24:09.856Z,29.84
2022-10-17T09:27:26.216Z,29.46
2022-10-17T09:30:44.267Z,29.41
2022-10-17T09:33:53.239Z,28.76
2022-10-17T09:36:24.665Z,29.42
2022-10-17T09:39:48.237Z,27.63
2022-10-17T09:42:55.497Z,28.36
2022-10-17T09:45:32.883Z,28.22
2022-10-17T09:48:09.642Z,28.99
2022-10-17T09:51:14.669Z,27.80
2022-10-17T09:54:21.167Z,27.34
2022-10-17T10:00:06.803Z,27.98
2022-10-17T10:02:44.228Z,27.33
2022-10-17T10:05:28.738Z,27.49
2022-10-17T10:08:06.278Z,27.85
2022-10-17T10:10:34.493Z,27.87
2022-10-17T10:13:32.681Z,28.02
2022-10-17T10:16:23.388Z,27.42
2022-10-17T10:18:52.164Z,28.50
2022-10-17T10:21:21.739Z,27.33
2022-10-17T10:24:18.986Z,26.94
2022-10-17T10:26:50.213Z,27.01
2022-10-17T10:29:29.329Z,27.60
2022-10-17T10:32:17.022Z,27.20
2022-10-17T10:34:48.660Z,27.03
2022-10-17T10:37:20.333Z,26.89
2022-10-17T10:39:51.124Z,27.08
2022-10-17T10:42:27.376Z,28.47
2022-10-17T10:44:59.407Z,27.17
2022-10-17T10:47:29.287Z,26.73
2022-10-17T10:50:20.645Z,26.97
2022-10-17T10:52:56.870Z,28.70
2022-10-17T10:55:30.173Z,27.28
2022-10-17T10:58:04.161Z,27.52
2022-10-17T11:00:35.125Z,27.21
2022-10-17T11:03:12.711Z,27.86
2022-10-17T11:05:46.712Z,27.38
2022-10-17T11:08:24.933Z,26.69
2022-10-17T11:11:08.285Z,27.21
2022-10-17T11:13:46.011Z,27.38
2022-10-17T11:16:28.338Z,28.70
2022-10-17T11:19:03.301Z,27.76
2022-10-17T11:24:23.084Z,26.84
2022-10-17T11:26:57.110Z,27.16
2022-10-17T11:29:29.936Z,27.26
2022-10-17T11:32:01.659Z,27.74
2022-10-17T11:34:33.793Z,28.28
2022-10-17T11:37:05.854Z,28.12
2022-10-17T11:39:42.233Z,27.21
2022-10-17T11:42:15.055Z,26.93
2022-10-17T11:44:44.423Z,26.82
2022-10-17T11:47:22.284Z,27.07
2022-10-17T11:49:53.515Z,27.08
2022-10-17T11:52:51.776Z,27.11
2022-10-17T11:55:22.193Z,27.01
2022-10-17T11:58:01.452Z,26.89
2022-10-17T12:00:51.013Z,27.32
2022-10-17T12:03:32.573Z,26.96
2022-10-17T12:06:09.323Z,27.09
2022-10-17T12:08:44.073Z,27.47
2022-10-17T12:11:20.203Z,27.77
2022-10-17T12:13:55.367Z,26.56
2022-10-17T12:16:51.505Z,26.86
2022-10-17T12:19:27.447Z,26.67
2022-10-17T12:21:58.868Z,27.34
2022-10-17T12:24:37.936Z,27.41
2022-10-17T12:27:38.263Z,27.04
2022-10-17T12:30:07.434Z,27.14
2022-10-17T12:33:03.767Z,27.18
2022-10-17T12:35:28.229Z,27.18
2022-10-17T12:38:15.908Z,26.53
2022-10-17T12:41:04.619Z,26.86
2022-10-17T12:46:50.073Z,26.67
2022-10-17T12:49:48.183Z,27.15
2022-10-17T12:52:26.526Z,27.01
2022-10-17T12:55:14.569Z,26.52
2022-10-17T12:57:54.414Z,26.94
2022-10-17T13:00:28.741Z,26.78
2022-10-17T13:03:05.317Z,26.70
2022-10-17T13:05:41.223Z,27.22
2022-10-17T13:08:17.429Z,27.33
2022-10-17T13:10:51.670Z,27.13
2022-10-17T13:13:27.029Z,27.49
2022-10-17T13:15:56.177Z,27.48
2022-10-17T13:18:26.578Z,27.27
2022-10-17T13:21:03.861Z,26.76
2022-10-17T13:23:35.939Z,27.41
2022-10-17T13:26:18.459Z,26.70
2022-10-17T13:28:47.507Z,27.33
2022-10-17T13:31:31.101Z,27.60
2022-10-17T13:34:05.092Z,27.32
2022-10-17T13:36:35.824Z,27.24
2022-10-17T13:39:12.417Z,27.54
2022-10-17T13:41:42.789Z,27.52
2022-10-17T13:44:14.908Z,27.44
2022-10-17T13:46:44.498Z,27.98
2022-10-17T13:49:21.365Z,28.21
2022-10-17T13:51:55.480Z,27.52
2022-10-17T13:54:47.173Z,27.50
2022-10-17T13:57:21.104Z,27.30
2022-10-17T13:59:51.363Z,26.98
2022-10-17T14:02:22.257Z,27.22
2022-10-17T14:05:18.587Z,28.50
2022-10-17T14:08:10.717Z,28.31
2022-10-17T14:10:43.279Z,26.87
2022-10-17T14:13:21.773Z,26.95
2022-10-17T14:15:52.286Z,27.07
2022-10-17T14:18:25.787Z,26.86
2022-10-17T14:21:32.173Z,27.15
2022-10-17T14:23:46.749Z,27.09
2022-10-17T14:26:17.412Z,28.23
2022-10-17T14:28:48.557Z,26.95
2022-10-17T14:31:23.663Z,27.07
2022-10-17T14:33:53.556Z,27.05
2022-10-17T14:36:30.325Z,27.69
2022-10-17T14:39:01.940Z,27.21
2022-10-17T14:41:47.842Z,28.10
2022-10-17T14:44:21.772Z,27.39
2022-10-17T14:46:55.307Z,27.22
2022-10-17T14:49:32.547Z,27.28
2022-10-17T14:52:24.508Z,28.13
2022-10-17T14:54:56.194Z,27.77
2022-10-17T14:57:27.499Z,28.58
2022-10-17T14:59:56.761Z,28.24
2022-10-17T15:02:26.168Z,27.95
2022-10-17T15:04:55.200Z,28.40
2022-10-17T15:07:23.571Z,28.12
2022-10-17T15:09:54.333Z,28.37
2022-10-17T15:12:25.193Z,28.64
2022-10-17T15:14:54.009Z,28.03
2022-10-17T15:17:25.283Z,28.13
2022-10-17T15:19:54.088Z,28.92
2022-10-17T15:22:22.134Z,28.42
2022-10-17T15:24:50.455Z,28.61
2022-10-17T15:27:22.505Z,28.06
2022-10-17T15:29:51.545Z,28.64
2022-10-17T15:32:19.487Z,28.96
2022-10-17T15:34:47.446Z,28.41
2022-10-17T15:37:20.223Z,28.32
2022-10-17T15:39:50.073Z,28.68
2022-10-17T15:42:17.408Z,28.11
2022-10-17T15:44:47.836Z,28.58
2022-10-17T15:47:22.797Z,28.59
2022-10-17T15:49:50.795Z,28.30
2022-10-17T15:52:19.152Z,28.43
2022-10-17T15:54:48.299Z,27.66
2022-10-17T15:57:19.762Z,27.94
2022-10-17T15:59:51.936Z,28.09
2022-10-17T16:02:21.157Z,27.60
2022-10-17T16:04:50.183Z,28.71
2022-10-17T16:07:18.923Z,29.45
2022-10-17T16:09:47.309Z,28.16
2022-10-17T16:12:18.679Z,28.64
2022-10-17T16:14:46.919Z,28.61
2022-10-17T16:17:17.579Z,28.89
2022-10-17T16:19:46.158Z,28.25
2022-10-17T16:22:22.958Z,28.87
2022-10-17T16:24:51.580Z,28.36
2022-10-17T16:27:19.396Z,27.71
2022-10-17T16:29:48.580Z,27.33
2022-10-17T16:32:20.517Z,28.07
2022-10-17T16:34:48.754Z,28.46
2022-10-17T16:37:17.962Z,28.29
2022-10-17T16:39:46.073Z,27.88
2022-10-17T16:42:13.933Z,28.39
2022-10-17T16:44:42.237Z,28.33
2022-10-17T16:47:10.578Z,27.46
2022-10-17T16:49:42.915Z,28.67
2022-10-17T16:52:13.727Z,28.76
2022-10-17T16:54:41.719Z,28.66
2022-10-17T16:57:09.699Z,28.26
2022-10-17T16:59:38.521Z,27.89
2022-10-17T17:02:07.358Z,28.46
2022-10-17T17:04:48.417Z,27.26
2022-10-17T17:07:16.468Z,27.94
2022-10-17T17:09:44.277Z,28.08
2022-10-17T17:12:12.367Z,27.89
2022-10-17T17:14:40.204Z,28.69
2022-10-17T17:17:15.338Z,27.69
2022-10-17T17:19:54.237Z,27.65
2022-10-17T17:22:22.125Z,28.26
2022-10-17T17:27:22.599Z,27.70
2022-10-17T17:29:50.347Z,28.19
2022-10-17T17:32:18.312Z,28.74
2022-10-17T17:34:46.203Z,28.25
2022-10-17T17:37:15.515Z,28.58
2022-10-17T17:39:43.537Z,27.92
2022-10-17T17:42:11.359Z,27.76
2022-10-17T17:44:39.259Z,27.83
2022-10-17T17:47:07.243Z,28.19
2022-10-17T17:49:35.253Z,27.94
2022-10-17T17:54:40.739Z,28.86
2022-10-17T17:57:08.976Z,27.98
2022-10-17T17:59:38.744Z,28.28
2022-10-17T18:02:06.941Z,28.00
2022-10-17T18:04:34.960Z,28.37
2022-10-17T18:07:02.988Z,28.84
2022-10-17T18:09:30.758Z,28.22
2022-10-17T18:12:00.174Z,27.76
2022-10-17T18:14:28.157Z,27.70
2022-10-17T18:16:56.017Z,29.29
2022-10-17T18:19:23.848Z,28.75
2022-10-17T18:21:51.967Z,28.79
2022-10-17T18:24:19.819Z,28.37
2022-10-17T18:26:47.733Z,28.77
2022-10-17T18:29:17.384Z,28.53
2022-10-17T18:31:44.920Z,27.78
2022-10-17T18:34:12.672Z,28.38
2022-10-17T18:36:40.665Z,28.74
2022-10-17T18:39:08.454Z,28.47
2022-10-17T18:41:36.419Z,28.02
2022-10-17T18:44:04.863Z,28.80
2022-10-17T18:46:36.001Z,27.94
2022-10-17T18:49:03.914Z,27.91
2022-10-17T18:51:31.877Z,27.62
2022-10-17T18:53:59.877Z,28.56
2022-10-17T18:56:27.713Z,29.19
2022-10-17T18:58:56.494Z,28.76
2022-10-17T19:01:26.416Z,28.48
2022-10-17T19:03:57.590Z,27.79
2022-10-17T19:06:27.806Z,28.12
2022-10-17T19:08:55.745Z,28.34
2022-10-17T19:11:25.505Z,28.25
2022-10-17T19:13:54.472Z,27.75
2022-10-17T19:16:23.987Z,27.93
2022-10-17T19:18:51.790Z,27.75
2022-10-17T19:21:22.260Z,29.19
2022-10-17T19:23:52.374Z,29.08
2022-10-17T19:26:20.215Z,28.27
2022-10-17T19:29:05.926Z,29.31
2022-10-17T19:31:35.095Z,28.47
2022-10-17T19:34:09.617Z,29.19
2022-10-17T19:36:39.179Z,28.30
2022-10-17T19:39:13.143Z,28.50
2022-10-17T19:41:41.906Z,28.21
2022-10-17T19:44:10.766Z,27.77
2022-10-17T19:46:39.065Z,29.91
2022-10-17T19:49:07.554Z,27.45
2022-10-17T19:51:35.818Z,27.93
2022-10-17T19:54:07.173Z,28.72
2022-10-17T19:56:35.550Z,29.01
2022-10-17T19:59:06.828Z,29.31
2022-10-17T20:01:38.761Z,28.67
2022-10-17T20:04:11.214Z,29.37
2022-10-17T20:06:40.357Z,28.63
2022-10-17T20:09:14.008Z,28.94
2022-10-17T20:11:44.888Z,29.27
2022-10-17T20:14:12.613Z,29.42
2022-10-17T20:16:40.549Z,29.19
2022-10-17T20:19:10.507Z,29.66
2022-10-17T20:21:38.867Z,28.25
2022-10-17T20:24:12.459Z,29.47
2022-10-17T20:26:42.475Z,28.56
2022-10-17T20:29:13.700Z,29.22
2022-10-17T20:31:43.603Z,28.20
2022-10-17T20:34:12.753Z,29.36
2022-10-17T20:36:41.042Z,27.51
2022-10-17T20:39:12.881Z,29.22
2022-10-17T20:41:41.188Z,28.90
2022-10-17T20:44:09.635Z,28.54
2022-10-17T20:46:44.347Z,29.69
2022-10-17T20:49:18.422Z,28.91
2022-10-17T20:51:46.422Z,29.56
2022-10-17T20:54:15.869Z,30.22
2022-10-17T20:56:43.702Z,29.42
2022-10-17T20:59:14.184Z,30.17
2022-10-17T21:01:42.691Z,30.00
2022-10-17T21:04:40.669Z,30.55
2022-10-17T21:06:59.539Z,29.14
2022-10-17T21:09:28.903Z,29.57
2022-10-17T21:11:56.957Z,28.30
2022-10-17T21:14:28.103Z,29.47
2022-10-17T21:16:57.341Z,30.56
2022-10-17T21:19:26.939Z,30.47
2022-10-17T21:21:54.798Z,29.65
2022-10-17T21:24:22.764Z,29.86
2022-10-17T21:26:52.628Z,29.48
2022-10-17T21:29:20.574Z,30.25
2022-10-17T21:31:48.414Z,29.83
2022-10-17T21:34:18.924Z,29.14
2022-10-17T21:36:47.088Z,29.21
2022-10-17T21:39:15.863Z,30.20
2022-10-17T21:41:44.673Z,29.90
2022-10-17T21:44:17.251Z,28.55
2022-10-17T21:46:46.058Z,29.85
2022-10-17T21:49:15.304Z,30.73
2022-10-17T21:51:43.930Z,30.08
2022-10-17T21:54:12.628Z,29.38
2022-10-17T21:56:40.946Z,29.52
2022-10-17T21:59:09.297Z,29.24
2022-10-17T22:01:41.121Z,29.61
2022-10-17T22:04:13.396Z,29.47
2022-10-17T22:06:43.032Z,29.32
2022-10-17T22:09:14.525Z,29.85
2022-10-17T22:11:47.530Z,29.80
2022-10-17T22:14:16.885Z,29.65
2022-10-17T22:16:47.313Z,29.28
2022-10-17T22:19:18.378Z,29.91
2022-10-17T22:21:46.473Z,29.23
2022-10-17T22:24:16.754Z,29.92
2022-10-17T22:26:45.038Z,29.78
2022-10-17T22:29:13.156Z,30.10
2022-10-17T22:31:41.524Z,30.19
2022-10-17T22:34:13.073Z,30.28
2022-10-17T22:36:40.983Z,30.29
2022-10-17T22:39:09.315Z,29.58
2022-10-17T22:41:37.437Z,30.38
2022-10-17T22:44:08.551Z,30.44
2022-10-17T22:46:36.758Z,30.82
2022-10-17T22:49:04.986Z,29.99
2022-10-17T22:51:34.480Z,29.64
2022-10-17T22:54:02.368Z,29.39
2022-10-17T22:56:30.327Z,29.59
2022-10-17T22:59:00.903Z,29.42
2022-10-17T23:01:28.938Z,30.23
2022-10-17T23:03:59.053Z,28.26
2022-10-17T23:06:27.007Z,29.44
2022-10-17T23:08:56.353Z,29.28
2022-10-17T23:11:24.378Z,30.50
2022-10-17T23:13:52.137Z,29.94
2022-10-17T23:16:20.154Z,28.75
2022-10-17T23:18:47.934Z,30.02
2022-10-17T23:21:16.307Z,29.17
2022-10-17T23:23:44.123Z,30.26
2022-10-17T23:26:15.007Z,30.35
2022-10-17T23:28:45.877Z,31.67
2022-10-17T23:31:16.083Z,30.86
2022-10-17T23:33:44.862Z,30.37
2022-10-17T23:36:14.362Z,31.18
2022-10-17T23:38:42.530Z,30.59
2022-10-17T23:41:10.647Z,30.16
2022-10-17T23:43:40.258Z,30.75
2022-10-17T23:46:08.940Z,30.90
2022-10-17T23:48:38.570Z,30.04
2022-10-17T23:51:09.361Z,30.50
2022-10-17T23:53:37.536Z,30.00
2022-10-17T23:56:06.687Z,29.96
2022-10-17T23:58:34.957Z,30.37
